sensor_id;sensor_type;location;lat;lon;timestamp;temperature;humidity
11664;DHT22;72375;59.302;18.204;2023-10-13T00:01:40;9.70;76.10
11664;DHT22;72375;59.302;18.204;2023-10-13T00:04:26;9.70;76.30
11664;DHT22;72375;59.302;18.204;2023-10-13T00:07:11;9.70;76.30
11664;DHT22;72375;59.302;18.204;2023-10-13T00:09:57;9.70;76.50
11664;DHT22;72375;59.302;18.204;2023-10-13T00:12:44;9.60;76.50
11664;DHT22;72375;59.302;18.204;2023-10-13T00:15:38;9.60;76.60
11664;DHT22;72375;59.302;18.204;2023-10-13T00:18:27;9.60;76.80
11664;DHT22;72375;59.302;18.204;2023-10-13T00:21:17;9.60;76.90
11664;DHT22;72375;59.302;18.204;2023-10-13T00:24:15;9.50;77.10
11664;DHT22;72375;59.302;18.204;2023-10-13T00:27:07;9.50;77.20
11664;DHT22;72375;59.302;18.204;2023-10-13T00:30:00;9.50;77.40
11664;DHT22;72375;59.302;18.204;2023-10-13T00:32:59;9.50;77.60
11664;DHT22;72375;59.302;18.204;2023-10-13T00:35:45;9.40;77.50
11664;DHT22;72375;59.302;18.204;2023-10-13T00:38:35;9.40;77.80
11664;DHT22;72375;59.302;18.204;2023-10-13T00:41:21;9.40;77.90
11664;DHT22;72375;59.302;18.204;2023-10-13T00:44:26;9.40;78.00
11664;DHT22;72375;59.302;18.204;2023-10-13T00:47:21;9.30;77.90
11664;DHT22;72375;59.302;18.204;2023-10-13T00:50:21;9.30;78.00
11664;DHT22;72375;59.302;18.204;2023-10-13T00:53:08;9.30;78.20
11664;DHT22;72375;59.302;18.204;2023-10-13T00:55:53;9.30;78.60
11664;DHT22;72375;59.302;18.204;2023-10-13T00:58:41;9.20;78.50
11664;DHT22;72375;59.302;18.204;2023-10-13T01:01:26;9.20;78.50
11664;DHT22;72375;59.302;18.204;2023-10-13T01:04:18;9.20;78.70
11664;DHT22;72375;59.302;18.204;2023-10-13T01:07:03;9.20;78.70
11664;DHT22;72375;59.302;18.204;2023-10-13T01:09:48;9.10;78.70
11664;DHT22;72375;59.302;18.204;2023-10-13T01:12:34;9.10;78.90
11664;DHT22;72375;59.302;18.204;2023-10-13T01:15:19;9.10;79.00
11664;DHT22;72375;59.302;18.204;2023-10-13T01:18:06;9.10;79.00
11664;DHT22;72375;59.302;18.204;2023-10-13T01:20:56;9.10;79.20
11664;DHT22;72375;59.302;18.204;2023-10-13T01:23:45;9.00;79.10
11664;DHT22;72375;59.302;18.204;2023-10-13T01:26:30;9.00;80.00
11664;DHT22;72375;59.302;18.204;2023-10-13T01:29:20;9.00;79.50
11664;DHT22;72375;59.302;18.204;2023-10-13T01:32:10;9.00;79.40
11664;DHT22;72375;59.302;18.204;2023-10-13T01:34:56;8.90;79.60
11664;DHT22;72375;59.302;18.204;2023-10-13T01:37:50;8.90;79.70
11664;DHT22;72375;59.302;18.204;2023-10-13T01:40:37;8.90;79.70
11664;DHT22;72375;59.302;18.204;2023-10-13T01:43:22;8.90;80.00
11664;DHT22;72375;59.302;18.204;2023-10-13T01:46:08;8.90;80.20
11664;DHT22;72375;59.302;18.204;2023-10-13T01:48:53;8.90;80.20
11664;DHT22;72375;59.302;18.204;2023-10-13T01:51:41;8.80;80.20
11664;DHT22;72375;59.302;18.204;2023-10-13T01:54:28;8.80;80.40
11664;DHT22;72375;59.302;18.204;2023-10-13T01:57:14;8.80;80.50
11664;DHT22;72375;59.302;18.204;2023-10-13T02:00:01;8.80;80.50
11664;DHT22;72375;59.302;18.204;2023-10-13T02:03:03;8.70;80.70
11664;DHT22;72375;59.302;18.204;2023-10-13T02:05:51;8.70;81.00
11664;DHT22;72375;59.302;18.204;2023-10-13T02:08:42;8.70;81.00
11664;DHT22;72375;59.302;18.204;2023-10-13T02:11:28;8.70;81.20
11664;DHT22;72375;59.302;18.204;2023-10-13T02:14:16;8.70;81.30
11664;DHT22;72375;59.302;18.204;2023-10-13T02:17:00;8.70;81.50
11664;DHT22;72375;59.302;18.204;2023-10-13T02:19:57;8.60;81.40
11664;DHT22;72375;59.302;18.204;2023-10-13T02:22:42;8.60;81.70
11664;DHT22;72375;59.302;18.204;2023-10-13T02:25:35;8.60;81.70
11664;DHT22;72375;59.302;18.204;2023-10-13T02:28:19;8.60;81.90
11664;DHT22;72375;59.302;18.204;2023-10-13T02:31:13;8.60;81.90
11664;DHT22;72375;59.302;18.204;2023-10-13T02:34:02;8.50;81.80
11664;DHT22;72375;59.302;18.204;2023-10-13T02:36:50;8.50;82.00
11664;DHT22;72375;59.302;18.204;2023-10-13T02:39:38;8.50;82.20
11664;DHT22;72375;59.302;18.204;2023-10-13T02:42:25;8.50;82.30
11664;DHT22;72375;59.302;18.204;2023-10-13T02:45:11;8.50;82.40
11664;DHT22;72375;59.302;18.204;2023-10-13T02:47:58;8.50;82.40
11664;DHT22;72375;59.302;18.204;2023-10-13T02:50:58;8.40;82.60
11664;DHT22;72375;59.302;18.204;2023-10-13T02:53:50;8.40;82.80
11664;DHT22;72375;59.302;18.204;2023-10-13T02:56:37;8.40;83.70
11664;DHT22;72375;59.302;18.204;2023-10-13T02:59:32;8.40;83.00
11664;DHT22;72375;59.302;18.204;2023-10-13T03:02:24;8.40;83.20
11664;DHT22;72375;59.302;18.204;2023-10-13T03:05:13;8.40;83.30
11664;DHT22;72375;59.302;18.204;2023-10-13T03:07:58;8.30;83.20
11664;DHT22;72375;59.302;18.204;2023-10-13T03:10:48;8.30;83.40
11664;DHT22;72375;59.302;18.204;2023-10-13T03:13:35;8.30;83.60
11664;DHT22;72375;59.302;18.204;2023-10-13T03:16:21;8.30;83.60
11664;DHT22;72375;59.302;18.204;2023-10-13T03:19:06;8.30;83.80
11664;DHT22;72375;59.302;18.204;2023-10-13T03:21:55;8.30;84.00
11664;DHT22;72375;59.302;18.204;2023-10-13T03:24:40;8.20;83.90
11664;DHT22;72375;59.302;18.204;2023-10-13T03:27:30;8.20;84.10
11664;DHT22;72375;59.302;18.204;2023-10-13T03:30:24;8.20;84.10
11664;DHT22;72375;59.302;18.204;2023-10-13T03:33:18;8.20;84.50
11664;DHT22;72375;59.302;18.204;2023-10-13T03:36:10;8.20;84.60
11664;DHT22;72375;59.302;18.204;2023-10-13T03:39:17;8.20;84.80
11664;DHT22;72375;59.302;18.204;2023-10-13T03:42:03;8.20;84.70
11664;DHT22;72375;59.302;18.204;2023-10-13T03:44:49;8.10;84.50
11664;DHT22;72375;59.302;18.204;2023-10-13T03:47:39;8.10;84.80
11664;DHT22;72375;59.302;18.204;2023-10-13T03:50:30;8.00;84.80
11664;DHT22;72375;59.302;18.204;2023-10-13T03:53:16;8.00;85.10
11664;DHT22;72375;59.302;18.204;2023-10-13T03:56:06;8.00;85.20
11664;DHT22;72375;59.302;18.204;2023-10-13T03:58:57;8.00;85.30
11664;DHT22;72375;59.302;18.204;2023-10-13T04:01:49;8.00;85.40
11664;DHT22;72375;59.302;18.204;2023-10-13T04:04:43;8.00;86.50
11664;DHT22;72375;59.302;18.204;2023-10-13T04:07:33;7.90;85.60
11664;DHT22;72375;59.302;18.204;2023-10-13T04:10:45;7.90;85.90
11664;DHT22;72375;59.302;18.204;2023-10-13T04:13:49;7.90;86.00
11664;DHT22;72375;59.302;18.204;2023-10-13T04:16:49;7.90;86.20
11664;DHT22;72375;59.302;18.204;2023-10-13T04:19:38;7.90;86.30
11664;DHT22;72375;59.302;18.204;2023-10-13T04:22:44;7.80;86.30
11664;DHT22;72375;59.302;18.204;2023-10-13T04:25:47;7.80;86.60
11664;DHT22;72375;59.302;18.204;2023-10-13T04:29:07;7.80;86.30
11664;DHT22;72375;59.302;18.204;2023-10-13T04:31:56;7.80;86.80
11664;DHT22;72375;59.302;18.204;2023-10-13T04:34:44;7.80;86.90
11664;DHT22;72375;59.302;18.204;2023-10-13T04:37:30;7.70;86.90
11664;DHT22;72375;59.302;18.204;2023-10-13T04:40:32;7.70;87.20
11664;DHT22;72375;59.302;18.204;2023-10-13T04:43:19;7.70;88.20
11664;DHT22;72375;59.302;18.204;2023-10-13T04:46:18;7.70;87.40
11664;DHT22;72375;59.302;18.204;2023-10-13T04:49:20;7.70;87.70
11664;DHT22;72375;59.302;18.204;2023-10-13T04:52:13;7.70;87.80
11664;DHT22;72375;59.302;18.204;2023-10-13T04:55:11;7.60;87.50
11664;DHT22;72375;59.302;18.204;2023-10-13T04:58:16;7.60;88.00
11664;DHT22;72375;59.302;18.204;2023-10-13T05:01:27;7.60;87.60
11664;DHT22;72375;59.302;18.204;2023-10-13T05:04:27;7.60;88.20
11664;DHT22;72375;59.302;18.204;2023-10-13T05:07:22;7.50;88.30
11664;DHT22;72375;59.302;18.204;2023-10-13T05:10:26;7.50;88.20
11664;DHT22;72375;59.302;18.204;2023-10-13T05:13:29;7.50;88.70
11664;DHT22;72375;59.302;18.204;2023-10-13T05:16:34;7.50;88.70
11664;DHT22;72375;59.302;18.204;2023-10-13T05:19:37;7.50;88.90
11664;DHT22;72375;59.302;18.204;2023-10-13T05:22:41;7.50;89.10
11664;DHT22;72375;59.302;18.204;2023-10-13T05:25:44;7.40;89.50
11664;DHT22;72375;59.302;18.204;2023-10-13T05:28:47;7.40;89.40
11664;DHT22;72375;59.302;18.204;2023-10-13T05:31:52;7.40;89.50
11664;DHT22;72375;59.302;18.204;2023-10-13T05:34:55;7.40;89.60
11664;DHT22;72375;59.302;18.204;2023-10-13T05:37:58;7.40;89.40
11664;DHT22;72375;59.302;18.204;2023-10-13T05:41:03;7.40;90.00
11664;DHT22;72375;59.302;18.204;2023-10-13T05:44:07;7.40;90.00
11664;DHT22;72375;59.302;18.204;2023-10-13T05:47:11;7.40;90.00
11664;DHT22;72375;59.302;18.204;2023-10-13T05:50:15;7.30;90.00
11664;DHT22;72375;59.302;18.204;2023-10-13T05:53:33;7.30;90.00
11664;DHT22;72375;59.302;18.204;2023-10-13T05:56:37;7.30;89.60
11664;DHT22;72375;59.302;18.204;2023-10-13T05:59:40;7.30;89.50
11664;DHT22;72375;59.302;18.204;2023-10-13T06:02:45;7.30;89.40
11664;DHT22;72375;59.302;18.204;2023-10-13T06:05:48;7.30;89.50
11664;DHT22;72375;59.302;18.204;2023-10-13T06:08:52;7.30;89.50
11664;DHT22;72375;59.302;18.204;2023-10-13T06:11:55;7.30;90.00
11664;DHT22;72375;59.302;18.204;2023-10-13T06:14:58;7.30;90.20
11664;DHT22;72375;59.302;18.204;2023-10-13T06:18:04;7.30;89.90
11664;DHT22;72375;59.302;18.204;2023-10-13T06:21:07;7.30;90.10
11664;DHT22;72375;59.302;18.204;2023-10-13T06:24:10;7.40;90.30
11664;DHT22;72375;59.302;18.204;2023-10-13T06:27:14;7.40;90.40
11664;DHT22;72375;59.302;18.204;2023-10-13T06:30:17;7.40;90.20
11664;DHT22;72375;59.302;18.204;2023-10-13T06:33:05;7.40;90.30
11664;DHT22;72375;59.302;18.204;2023-10-13T06:35:52;7.40;90.20
11664;DHT22;72375;59.302;18.204;2023-10-13T06:38:40;7.40;90.20
11664;DHT22;72375;59.302;18.204;2023-10-13T06:41:26;7.50;90.20
11664;DHT22;72375;59.302;18.204;2023-10-13T06:44:16;7.50;90.30
11664;DHT22;72375;59.302;18.204;2023-10-13T06:47:01;7.60;90.20
11664;DHT22;72375;59.302;18.204;2023-10-13T06:49:49;7.70;90.30
11664;DHT22;72375;59.302;18.204;2023-10-13T06:52:36;7.70;90.40
11664;DHT22;72375;59.302;18.204;2023-10-13T06:55:21;7.70;90.40
11664;DHT22;72375;59.302;18.204;2023-10-13T06:58:11;7.80;90.50
11664;DHT22;72375;59.302;18.204;2023-10-13T07:00:57;7.80;90.30
11664;DHT22;72375;59.302;18.204;2023-10-13T07:03:43;7.80;90.20
11664;DHT22;72375;59.302;18.204;2023-10-13T07:06:34;7.90;90.40
11664;DHT22;72375;59.302;18.204;2023-10-13T07:09:20;7.90;90.30
11664;DHT22;72375;59.302;18.204;2023-10-13T07:12:23;8.10;90.60
11664;DHT22;72375;59.302;18.204;2023-10-13T07:15:10;8.20;90.90
11664;DHT22;72375;59.302;18.204;2023-10-13T07:18:04;8.40;91.00
11664;DHT22;72375;59.302;18.204;2023-10-13T07:20:49;8.60;90.90
11664;DHT22;72375;59.302;18.204;2023-10-13T07:23:37;8.70;91.20
11664;DHT22;72375;59.302;18.204;2023-10-13T07:26:23;8.90;91.00
11664;DHT22;72375;59.302;18.204;2023-10-13T07:29:09;9.00;90.80
11664;DHT22;72375;59.302;18.204;2023-10-13T07:31:55;9.10;91.00
11664;DHT22;72375;59.302;18.204;2023-10-13T07:34:40;9.20;90.90
11664;DHT22;72375;59.302;18.204;2023-10-13T07:37:26;9.30;90.90
11664;DHT22;72375;59.302;18.204;2023-10-13T07:40:15;9.40;90.80
11664;DHT22;72375;59.302;18.204;2023-10-13T07:43:24;9.40;91.60
11664;DHT22;72375;59.302;18.204;2023-10-13T07:46:11;9.50;91.60
11664;DHT22;72375;59.302;18.204;2023-10-13T07:48:57;9.50;91.50
11664;DHT22;72375;59.302;18.204;2023-10-13T07:51:53;9.60;91.80
11664;DHT22;72375;59.302;18.204;2023-10-13T07:54:42;9.60;91.60
11664;DHT22;72375;59.302;18.204;2023-10-13T07:57:30;9.70;91.50
11664;DHT22;72375;59.302;18.204;2023-10-13T08:00:16;9.80;92.40
11664;DHT22;72375;59.302;18.204;2023-10-13T08:03:13;9.90;92.80
11664;DHT22;72375;59.302;18.204;2023-10-13T08:06:16;10.00;92.30
11664;DHT22;72375;59.302;18.204;2023-10-13T08:09:10;10.20;92.10
11664;DHT22;72375;59.302;18.204;2023-10-13T08:12:14;10.30;92.50
11664;DHT22;72375;59.302;18.204;2023-10-13T08:15:08;10.40;92.60
11664;DHT22;72375;59.302;18.204;2023-10-13T08:18:05;10.40;92.60
11664;DHT22;72375;59.302;18.204;2023-10-13T08:21:01;10.50;92.50
11664;DHT22;72375;59.302;18.204;2023-10-13T08:23:48;10.60;92.60
11664;DHT22;72375;59.302;18.204;2023-10-13T08:26:44;10.70;92.50
11664;DHT22;72375;59.302;18.204;2023-10-13T08:29:57;10.80;92.90
11664;DHT22;72375;59.302;18.204;2023-10-13T08:33:02;10.80;92.80
11664;DHT22;72375;59.302;18.204;2023-10-13T08:36:01;10.80;93.20
11664;DHT22;72375;59.302;18.204;2023-10-13T08:39:11;10.80;93.20
11664;DHT22;72375;59.302;18.204;2023-10-13T08:42:11;10.90;92.90
11664;DHT22;72375;59.302;18.204;2023-10-13T08:44:57;10.90;93.60
11664;DHT22;72375;59.302;18.204;2023-10-13T08:47:48;11.00;93.70
11664;DHT22;72375;59.302;18.204;2023-10-13T08:50:42;11.00;93.60
11664;DHT22;72375;59.302;18.204;2023-10-13T08:53:36;11.10;93.30
11664;DHT22;72375;59.302;18.204;2023-10-13T08:56:30;11.30;93.20
11664;DHT22;72375;59.302;18.204;2023-10-13T08:59:18;11.40;93.30
11664;DHT22;72375;59.302;18.204;2023-10-13T09:02:17;11.40;93.60
11664;DHT22;72375;59.302;18.204;2023-10-13T09:05:04;11.60;93.60
11664;DHT22;72375;59.302;18.204;2023-10-13T09:08:11;11.60;93.60
11664;DHT22;72375;59.302;18.204;2023-10-13T09:11:02;11.70;93.70
11664;DHT22;72375;59.302;18.204;2023-10-13T09:13:55;11.90;93.60
11664;DHT22;72375;59.302;18.204;2023-10-13T09:16:47;12.20;93.30
11664;DHT22;72375;59.302;18.204;2023-10-13T09:19:52;12.40;93.10
11664;DHT22;72375;59.302;18.204;2023-10-13T09:22:42;12.50;93.40
11664;DHT22;72375;59.302;18.204;2023-10-13T09:25:30;12.70;93.30
11664;DHT22;72375;59.302;18.204;2023-10-13T09:28:18;12.80;93.10
11664;DHT22;72375;59.302;18.204;2023-10-13T09:31:06;13.00;93.10
11664;DHT22;72375;59.302;18.204;2023-10-13T09:33:54;13.10;93.00
11664;DHT22;72375;59.302;18.204;2023-10-13T09:36:40;13.20;92.90
11664;DHT22;72375;59.302;18.204;2023-10-13T09:39:25;13.40;92.70
11664;DHT22;72375;59.302;18.204;2023-10-13T09:42:30;13.60;92.60
11664;DHT22;72375;59.302;18.204;2023-10-13T09:45:14;13.80;92.40
11664;DHT22;72375;59.302;18.204;2023-10-13T09:48:03;14.00;92.20
11664;DHT22;72375;59.302;18.204;2023-10-13T09:50:51;14.20;92.10
11664;DHT22;72375;59.302;18.204;2023-10-13T09:53:37;14.50;91.80
11664;DHT22;72375;59.302;18.204;2023-10-13T09:56:26;14.80;91.60
11664;DHT22;72375;59.302;18.204;2023-10-13T09:59:16;15.10;91.40
11664;DHT22;72375;59.302;18.204;2023-10-13T10:02:05;15.40;91.30
11664;DHT22;72375;59.302;18.204;2023-10-13T10:04:53;15.60;90.90
11664;DHT22;72375;59.302;18.204;2023-10-13T10:07:40;15.80;90.60
11664;DHT22;72375;59.302;18.204;2023-10-13T10:10:46;16.00;90.50
11664;DHT22;72375;59.302;18.204;2023-10-13T10:13:38;16.30;90.20
11664;DHT22;72375;59.302;18.204;2023-10-13T10:16:37;16.50;89.30
11664;DHT22;72375;59.302;18.204;2023-10-13T10:19:26;16.70;87.90
11664;DHT22;72375;59.302;18.204;2023-10-13T10:22:11;16.90;87.40
11664;DHT22;72375;59.302;18.204;2023-10-13T10:25:01;17.10;87.10
11664;DHT22;72375;59.302;18.204;2023-10-13T10:27:54;17.20;86.20
11664;DHT22;72375;59.302;18.204;2023-10-13T10:30:41;17.30;84.80
11664;DHT22;72375;59.302;18.204;2023-10-13T10:33:31;17.50;84.80
11664;DHT22;72375;59.302;18.204;2023-10-13T10:36:28;17.60;84.40
11664;DHT22;72375;59.302;18.204;2023-10-13T10:39:14;17.80;84.10
11664;DHT22;72375;59.302;18.204;2023-10-13T10:42:09;18.00;83.60
11664;DHT22;72375;59.302;18.204;2023-10-13T10:44:59;18.30;82.90
11664;DHT22;72375;59.302;18.204;2023-10-13T10:47:49;18.50;82.10
11664;DHT22;72375;59.302;18.204;2023-10-13T10:50:44;18.80;81.10
11664;DHT22;72375;59.302;18.204;2023-10-13T10:53:31;19.10;79.20
11664;DHT22;72375;59.302;18.204;2023-10-13T10:56:22;19.20;77.70
11664;DHT22;72375;59.302;18.204;2023-10-13T10:59:20;19.30;76.10
11664;DHT22;72375;59.302;18.204;2023-10-13T11:02:09;19.30;77.50
11664;DHT22;72375;59.302;18.204;2023-10-13T11:05:00;19.30;73.90
11664;DHT22;72375;59.302;18.204;2023-10-13T11:07:47;19.10;75.10
11664;DHT22;72375;59.302;18.204;2023-10-13T11:10:35;19.00;75.00
11664;DHT22;72375;59.302;18.204;2023-10-13T11:13:22;18.90;75.30
11664;DHT22;72375;59.302;18.204;2023-10-13T11:16:08;18.90;75.00
11664;DHT22;72375;59.302;18.204;2023-10-13T11:19:01;19.00;76.10
11664;DHT22;72375;59.302;18.204;2023-10-13T11:21:49;19.00;76.30
11664;DHT22;72375;59.302;18.204;2023-10-13T11:24:40;19.00;75.80
11664;DHT22;72375;59.302;18.204;2023-10-13T11:27:30;19.00;75.20
11664;DHT22;72375;59.302;18.204;2023-10-13T11:30:40;18.80;75.10
11664;DHT22;72375;59.302;18.204;2023-10-13T11:33:29;18.60;74.50
11664;DHT22;72375;59.302;18.204;2023-10-13T11:36:15;18.40;75.00
11664;DHT22;72375;59.302;18.204;2023-10-13T11:39:06;18.30;75.70
11664;DHT22;72375;59.302;18.204;2023-10-13T11:41:54;18.30;75.50
11664;DHT22;72375;59.302;18.204;2023-10-13T11:44:39;18.20;74.30
11664;DHT22;72375;59.302;18.204;2023-10-13T11:47:28;18.10;74.80
11664;DHT22;72375;59.302;18.204;2023-10-13T11:50:32;18.10;75.50
11664;DHT22;72375;59.302;18.204;2023-10-13T11:53:19;18.20;75.00
11664;DHT22;72375;59.302;18.204;2023-10-13T11:56:05;18.40;75.20
11664;DHT22;72375;59.302;18.204;2023-10-13T11:58:54;18.30;75.00
11664;DHT22;72375;59.302;18.204;2023-10-13T12:01:45;18.20;75.20
11664;DHT22;72375;59.302;18.204;2023-10-13T12:04:49;18.10;75.90
11664;DHT22;72375;59.302;18.204;2023-10-13T12:07:36;18.00;76.00
11664;DHT22;72375;59.302;18.204;2023-10-13T12:10:29;17.90;76.40
11664;DHT22;72375;59.302;18.204;2023-10-13T12:13:33;17.80;77.00
11664;DHT22;72375;59.302;18.204;2023-10-13T12:16:21;17.80;77.50
11664;DHT22;72375;59.302;18.204;2023-10-13T12:19:06;17.80;77.60
11664;DHT22;72375;59.302;18.204;2023-10-13T12:21:56;17.70;76.60
11664;DHT22;72375;59.302;18.204;2023-10-13T12:24:48;17.60;76.70
11664;DHT22;72375;59.302;18.204;2023-10-13T12:27:37;17.40;77.00
11664;DHT22;72375;59.302;18.204;2023-10-13T12:30:32;17.20;76.80
11664;DHT22;72375;59.302;18.204;2023-10-13T12:33:35;17.10;76.80
11664;DHT22;72375;59.302;18.204;2023-10-13T12:36:24;16.80;76.90
11664;DHT22;72375;59.302;18.204;2023-10-13T12:39:25;16.70;77.50
11664;DHT22;72375;59.302;18.204;2023-10-13T12:42:28;16.60;76.60
11664;DHT22;72375;59.302;18.204;2023-10-13T12:45:43;16.20;75.20
11664;DHT22;72375;59.302;18.204;2023-10-13T12:48:48;15.90;76.00
11664;DHT22;72375;59.302;18.204;2023-10-13T12:52:00;15.80;76.30
11664;DHT22;72375;59.302;18.204;2023-10-13T12:54:47;15.70;76.30
11664;DHT22;72375;59.302;18.204;2023-10-13T12:57:42;15.60;76.30
11664;DHT22;72375;59.302;18.204;2023-10-13T13:00:28;15.40;76.50
11664;DHT22;72375;59.302;18.204;2023-10-13T13:03:17;15.30;77.30
11664;DHT22;72375;59.302;18.204;2023-10-13T13:06:04;15.30;77.80
11664;DHT22;72375;59.302;18.204;2023-10-13T13:08:51;15.30;78.10
11664;DHT22;72375;59.302;18.204;2023-10-13T13:11:37;15.20;78.50
11664;DHT22;72375;59.302;18.204;2023-10-13T13:14:24;15.20;79.20
11664;DHT22;72375;59.302;18.204;2023-10-13T13:17:13;15.10;80.20
11664;DHT22;72375;59.302;18.204;2023-10-13T13:19:58;15.10;80.60
11664;DHT22;72375;59.302;18.204;2023-10-13T13:22:45;15.00;81.10
11664;DHT22;72375;59.302;18.204;2023-10-13T13:25:31;15.00;81.30
11664;DHT22;72375;59.302;18.204;2023-10-13T13:28:17;14.90;81.40
11664;DHT22;72375;59.302;18.204;2023-10-13T13:31:03;14.80;82.30
11664;DHT22;72375;59.302;18.204;2023-10-13T13:33:52;14.80;83.00
11664;DHT22;72375;59.302;18.204;2023-10-13T13:36:38;14.70;83.40
11664;DHT22;72375;59.302;18.204;2023-10-13T13:39:29;14.70;83.40
11664;DHT22;72375;59.302;18.204;2023-10-13T13:42:15;14.60;83.90
11664;DHT22;72375;59.302;18.204;2023-10-13T13:45:03;14.50;84.30
11664;DHT22;72375;59.302;18.204;2023-10-13T13:47:53;14.40;84.90
11664;DHT22;72375;59.302;18.204;2023-10-13T13:50:39;14.30;85.50
11664;DHT22;72375;59.302;18.204;2023-10-13T13:53:25;14.30;85.30
11664;DHT22;72375;59.302;18.204;2023-10-13T13:56:17;14.20;85.90
11664;DHT22;72375;59.302;18.204;2023-10-13T13:59:03;14.10;86.00
11664;DHT22;72375;59.302;18.204;2023-10-13T14:01:52;14.10;86.10
11664;DHT22;72375;59.302;18.204;2023-10-13T14:04:43;14.00;86.60
11664;DHT22;72375;59.302;18.204;2023-10-13T14:07:30;13.90;86.70
11664;DHT22;72375;59.302;18.204;2023-10-13T14:10:19;13.80;86.90
11664;DHT22;72375;59.302;18.204;2023-10-13T14:13:18;13.80;87.40
11664;DHT22;72375;59.302;18.204;2023-10-13T14:16:06;13.70;87.80
11664;DHT22;72375;59.302;18.204;2023-10-13T14:19:00;13.60;87.90
11664;DHT22;72375;59.302;18.204;2023-10-13T14:21:51;13.50;88.40
11664;DHT22;72375;59.302;18.204;2023-10-13T14:24:39;13.40;88.70
11664;DHT22;72375;59.302;18.204;2023-10-13T14:27:31;13.40;89.30
11664;DHT22;72375;59.302;18.204;2023-10-13T14:30:18;13.40;89.80
11664;DHT22;72375;59.302;18.204;2023-10-13T14:33:04;13.30;90.00
11664;DHT22;72375;59.302;18.204;2023-10-13T14:35:55;13.20;90.20
11664;DHT22;72375;59.302;18.204;2023-10-13T14:38:41;13.20;90.40
11664;DHT22;72375;59.302;18.204;2023-10-13T14:41:28;13.20;90.60
11664;DHT22;72375;59.302;18.204;2023-10-13T14:44:15;13.10;90.90
11664;DHT22;72375;59.302;18.204;2023-10-13T14:47:02;13.00;91.00
11664;DHT22;72375;59.302;18.204;2023-10-13T14:49:50;13.00;91.10
11664;DHT22;72375;59.302;18.204;2023-10-13T14:52:38;13.00;91.10
11664;DHT22;72375;59.302;18.204;2023-10-13T14:55:24;12.90;91.20
11664;DHT22;72375;59.302;18.204;2023-10-13T14:58:22;12.90;91.30
11664;DHT22;72375;59.302;18.204;2023-10-13T15:01:11;12.80;91.40
11664;DHT22;72375;59.302;18.204;2023-10-13T15:04:00;12.80;91.30
11664;DHT22;72375;59.302;18.204;2023-10-13T15:06:46;12.70;91.50
11664;DHT22;72375;59.302;18.204;2023-10-13T15:09:31;12.70;91.50
11664;DHT22;72375;59.302;18.204;2023-10-13T15:12:17;12.70;91.50
11664;DHT22;72375;59.302;18.204;2023-10-13T15:15:05;12.60;91.70
11664;DHT22;72375;59.302;18.204;2023-10-13T15:17:57;12.60;91.90
11664;DHT22;72375;59.302;18.204;2023-10-13T15:20:44;12.50;91.70
11664;DHT22;72375;59.302;18.204;2023-10-13T15:23:30;12.50;91.80
11664;DHT22;72375;59.302;18.204;2023-10-13T15:26:18;12.50;92.00
11664;DHT22;72375;59.302;18.204;2023-10-13T15:29:05;12.40;92.00
11664;DHT22;72375;59.302;18.204;2023-10-13T15:31:56;12.40;92.00
11664;DHT22;72375;59.302;18.204;2023-10-13T15:35:09;12.40;91.90
11664;DHT22;72375;59.302;18.204;2023-10-13T15:37:57;12.30;91.90
11664;DHT22;72375;59.302;18.204;2023-10-13T15:40:45;12.30;92.00
11664;DHT22;72375;59.302;18.204;2023-10-13T15:43:30;12.30;92.10
11664;DHT22;72375;59.302;18.204;2023-10-13T15:46:16;12.30;92.60
11664;DHT22;72375;59.302;18.204;2023-10-13T15:49:03;12.20;92.50
11664;DHT22;72375;59.302;18.204;2023-10-13T15:51:50;12.20;93.10
11664;DHT22;72375;59.302;18.204;2023-10-13T15:54:37;12.20;93.40
11664;DHT22;72375;59.302;18.204;2023-10-13T15:57:25;12.10;93.80
11664;DHT22;72375;59.302;18.204;2023-10-13T16:00:11;12.10;94.10
11664;DHT22;72375;59.302;18.204;2023-10-13T16:03:10;12.00;94.50
11664;DHT22;72375;59.302;18.204;2023-10-13T16:05:56;12.00;94.90
11664;DHT22;72375;59.302;18.204;2023-10-13T16:08:42;12.00;95.60
11664;DHT22;72375;59.302;18.204;2023-10-13T16:11:29;11.90;95.60
11664;DHT22;72375;59.302;18.204;2023-10-13T16:14:15;11.90;95.90
11664;DHT22;72375;59.302;18.204;2023-10-13T16:17:01;11.80;96.20
11664;DHT22;72375;59.302;18.204;2023-10-13T16:19:49;11.80;96.50
11664;DHT22;72375;59.302;18.204;2023-10-13T16:22:34;11.70;97.00
11664;DHT22;72375;59.302;18.204;2023-10-13T16:25:20;11.70;96.90
11664;DHT22;72375;59.302;18.204;2023-10-13T16:28:09;11.70;97.80
11664;DHT22;72375;59.302;18.204;2023-10-13T16:30:56;11.70;98.40
11664;DHT22;72375;59.302;18.204;2023-10-13T16:33:42;11.60;98.40
11664;DHT22;72375;59.302;18.204;2023-10-13T16:36:28;11.60;99.00
11664;DHT22;72375;59.302;18.204;2023-10-13T16:39:15;11.60;99.20
11664;DHT22;72375;59.302;18.204;2023-10-13T16:42:01;11.60;99.90
11664;DHT22;72375;59.302;18.204;2023-10-13T16:44:53;11.60;99.90
11664;DHT22;72375;59.302;18.204;2023-10-13T16:47:38;11.50;99.90
11664;DHT22;72375;59.302;18.204;2023-10-13T16:50:26;11.60;99.90
11664;DHT22;72375;59.302;18.204;2023-10-13T16:53:12;11.60;99.90
11664;DHT22;72375;59.302;18.204;2023-10-13T16:55:58;11.50;99.90
11664;DHT22;72375;59.302;18.204;2023-10-13T16:58:45;11.50;99.90
11664;DHT22;72375;59.302;18.204;2023-10-13T17:01:32;11.50;99.90
11664;DHT22;72375;59.302;18.204;2023-10-13T17:04:17;11.50;99.90
11664;DHT22;72375;59.302;18.204;2023-10-13T17:07:05;11.40;99.90
11664;DHT22;72375;59.302;18.204;2023-10-13T17:09:51;11.50;99.90
11664;DHT22;72375;59.302;18.204;2023-10-13T17:12:41;11.50;99.90
11664;DHT22;72375;59.302;18.204;2023-10-13T17:15:30;11.50;99.90
11664;DHT22;72375;59.302;18.204;2023-10-13T17:18:17;11.50;99.90
11664;DHT22;72375;59.302;18.204;2023-10-13T17:21:03;11.50;99.90
11664;DHT22;72375;59.302;18.204;2023-10-13T17:23:52;11.50;99.90
11664;DHT22;72375;59.302;18.204;2023-10-13T17:26:38;11.50;99.90
11664;DHT22;72375;59.302;18.204;2023-10-13T17:29:24;11.50;99.90
11664;DHT22;72375;59.302;18.204;2023-10-13T17:32:11;11.50;99.90
11664;DHT22;72375;59.302;18.204;2023-10-13T17:34:59;11.50;99.90
11664;DHT22;72375;59.302;18.204;2023-10-13T17:37:45;11.50;99.90
11664;DHT22;72375;59.302;18.204;2023-10-13T17:40:33;11.50;99.90
11664;DHT22;72375;59.302;18.204;2023-10-13T17:43:18;11.40;99.90
11664;DHT22;72375;59.302;18.204;2023-10-13T17:46:05;11.40;99.90
11664;DHT22;72375;59.302;18.204;2023-10-13T17:48:52;11.40;99.90
11664;DHT22;72375;59.302;18.204;2023-10-13T17:51:41;11.50;99.90
11664;DHT22;72375;59.302;18.204;2023-10-13T17:54:27;11.50;99.90